Tiempo atmosférico en la estación meteorológica de Puerto de Navacerrada, Madrid (1894 m.)



Fecha
DESCASC
Temp. máxima en grados centígrados (hora)
DESCASC
Temp. mínima en grados centígrados (hora)
DESCASC
Temp. media en grados centígrados
DESCASC
Racha de viento máxima en m/sg (hora)
DESCASC
Velocidad máxima media en intervalos de 10 minutos(hora)
DESCASC
Precipitaciones diarias en mm
DESCASC
Precipitaciones de 00:00 a 06:00 en mm
DESCASC
Precipitaciones de 06:00 a 12:00 en mm
DESCASC
Precipitaciones de 12:00 a 18:00 en mm
DESCASC
Precipitaciones de 18:00 a 24:00 en mm
DESCASC
16-06-2019 20.4 (16:40) 8.6 (06:10) 14.5 11.94 (17:10) 6.67 (08:00) 0 0 0 0 0
15-06-2019 16.4 (16:50) 1.8 (07:00) 9.1 8.33 (01:10) 4.17 (01:20) 0 0 0 0 0
14-06-2019 16.3 (16:50) 5.6 (23:59) 10.9 13.61 (13:30) 8.06 (08:20) 0 0 0 0 0
13-06-2019 16.5 (17:50) 4.6 (00:00) 10.5 18.61 (14:00) 10 (15:00) 0 0 0 0 0
12-06-2019 14.3 (17:00) 1.5 (00:00) 7.9 11.39 (16:10) 6.11 (23:40) 0 0 0 0 0
11-06-2019 10.1 (15:20) 1.9 (00:00) 6 11.39 (17:30) 5.56 (12:50) 0.2 0 0.2 0 0
10-06-2019 14.5 (16:50) 3.7 (00:00) 9.1 9.72 (18:30) 4.17 (18:40) 0 0 0 0 0
09-06-2019 16.3 (17:20) 6.7 (00:00) 11.5 14.17 (00:40) 8.61 (01:00) 0 0 0 0 0
08-06-2019 17.1 (15:00) 3.6 (00:00) 10.4 19.17 (16:20) 9.72 (09:20) 0 0 0 0 0
07-06-2019 9.9 (17:40) -1 (-00:0) 4.4 17.5 (01:00) 10 (01:50) 1.6 1.6 0 0 0
06-06-2019 10.9 (17:20) 0.8 (00:00) 5.8 21.67 (19:40) 13.33 (22:10) 0 0 0 0 0
05-06-2019 8.4 (18:20) 0.1 (00:00) 4.2 12.22 (10:50) 5.83 (14:30) 5.6 1.4 4.2 0 0
04-06-2019 18.9 (17:20) 8.1 (00:00) 13.5 16.67 (04:40) 9.72 (06:30) 0 0 0 0 0
03-06-2019 23.1 (17:20) 13.2 (00:00) 18.2 15 (17:00) 8.33 (19:40) 0 0 0 0 0
02-06-2019 24.6 (14:10) 13.4 (00:00) 19 9.72 (16:30) 4.72 (00:50) 0 0 0 0 0
01-06-2019 24.5 (15:40) 11.4 (00:00) 17.9 9.72 (04:10) 6.11 (03:50) 0 0 0 0 0
31-05-2019 23.5 (17:00) 10.8 (00:00) 17.2 8.89 (00:10) 4.72 (00:20) 0 0 0 0 0
30-05-2019 21.6 (16:00) 7.9 (00:00) 14.8 8.89 (23:59) 5 (01:50) 0 0 0 0 0
29-05-2019 15.5 (16:50) 3.5 (00:00) 9.5 11.39 (05:10) 6.11 (03:00) 0 0 0 0 0
28-05-2019 14.5 (16:10) 5.2 (00:00) 9.8 12.78 (18:30) 6.67 (21:30) 0 0 0 0 0
27-05-2019 17 (15:00) 8.5 (00:00) 12.8 10.83 (18:40) 5.56 (00:20) 0 0 0 0 0
26-05-2019 14.9 (17:00) 3.8 (00:00) 9.3 13.33 (13:30) 6.39 (13:40) 0 0 0 0 0
25-05-2019 13.4 (16:00) 1.7 (00:00) 7.5 9.44 (18:30) 5.56 (23:59) 0 0 0 0 0
24-05-2019 12.7 (16:10) 2.4 (00:00) 7.5 11.67 (18:10) 6.11 (22:40) 0 0 0 0 0
23-05-2019 19 (16:40) 8.5 (00:00) 13.8 10.28 (23:10) 5.28 (15:10) 0 0 0 0 0
22-05-2019 17.3 (15:50) 7.2 (00:00) 12.2 8.06 (15:30) 3.06 (00:30) 0 0 0 0 0
21-05-2019 11.9 (13:20) 4.2 (03:50) 8 6.67 (16:00) 3.06 (01:40) 0 0 0 0 0

Gráficas

Temp. máximas Temp. mínimas Temp. medias Precipitaciones Rachas de viento máximas Velocidades máximas media en intervalos de 10 minutos

Datos horarios

Fecha y hora oficial Temperatura (ºC) Velocidad del viento (km/h) Dirección del viento Racha (km/h) Dirección de racha Precipitación (mm) Presión (hPa) Tendencia (hPa) Humedad (%)
2019-06-19 23:00:00 10.3 10 Norte 21 Noroeste 0 813.7 0.6 77
2019-06-19 22:00:00 11.2 13 Norte 23 Norte 0 813.4 0.3 72
2019-06-19 21:00:00 12.9 9 Norte 24 Noroeste 0 813.4 0.4 67
2019-06-19 20:00:00 13.9 7 Noroeste 18 Norte 0 813.1 0.1 62
2019-06-19 19:00:00 14.7 6 Oeste 18 Sudoeste 0 813.1 0 57
2019-06-19 18:00:00 15.5 6 Sudoeste 14 Sudoeste 0 813 -0.1 59
2019-06-19 17:00:00 16.2 10 Sudoeste 32 Sudoeste 0 813 -0.2 56
2019-06-19 16:00:00 19.2 14 Sur 28 Sur 0 813.1 -0.1 49
2019-06-19 15:00:00 18.9 14 Sur 29 Sur 0 813.1 0.1 46
2019-06-19 14:00:00 16.8 13 Sur 24 Sur 0 813.2 0.4 53
2019-06-19 13:00:00 14.6 3 Oeste 13 Sudoeste 0 813.2 0.7 62
2019-06-19 12:00:00 12.5 4 Oeste 15 Noroeste 0 813 0.8 71
2019-06-19 11:00:00 12.2 6 Noroeste 17 Noroeste 0 812.8 0.6 74
2019-06-19 10:00:00 14.7 8 Sudeste 15 Sur 0 812.5 0.5 63
2019-06-19 09:00:00 12.9 4 Nordeste 11 Este 0 812.2 0.2 69
2019-06-19 08:00:00 9.4 4 Norte 17 Nordeste 0 812.2 0.2 87
2019-06-19 07:00:00 7.4 4 Norte 22 Sudoeste 0 812 0 95
2019-06-19 06:00:00 7.5 7 Sudoeste 15 Sudoeste 0 812 -0.3 92
2019-06-19 05:00:00 9.2 11 Oeste 38 Sudoeste 0 812 -0.5 78
2019-06-19 04:00:00 9.8 24 Sudoeste 41 Sudoeste 0 812 -0.9 74
2019-06-19 03:00:00 10.3 25 Sudoeste 44 Sudoeste 0 812.3 -0.7 73
2019-06-19 02:00:00 10.6 23 Sudoeste 41 Sudoeste 0 812.5 -0.6 68
2019-06-19 01:00:00 11.1 22 Sudoeste 38 Sudoeste 0 812.9 0.2 64
2019-06-19 00:00:00 11.1 23 Oeste 40 Sudoeste 0 813 0.1 63
2019-06-18 23:00:00 11.3 23 Sudoeste 39 Sudoeste 0 813.1 0.4 66
2019-06-18 22:00:00 12.1 22 Sudoeste 40 Sudoeste 0 812.7 0.4 60
2019-06-18 21:00:00 13.9 23 Sudoeste 47 Sudoeste 0 812.9 0.6 49
2019-06-18 20:00:00 15.9 28 Sudoeste 47 Sudoeste 0 812.7 0.6 37
2019-06-18 19:00:00 17.4 25 Sudoeste 57 Sudoeste 0 812.3 -0.1 25
2019-06-18 18:00:00 18.4 24 Sudoeste 56 Sur 0 812.3 -0.1 24
2019-06-18 17:00:00 17.9 30 Sudoeste 62 Sur 0 812.1 -0.2 17
2019-06-18 16:00:00 18 25 Sur 65 Sudoeste 0 812.4 -0.1 18
2019-06-18 15:00:00 17.6 28 Sudoeste 68 Sudoeste 0 812.4 -0.1 19
2019-06-18 14:00:00 17.3 27 Sur 57 Sur 0 812.3 -0.1 24
2019-06-18 13:00:00 16.4 24 Sur 54 Sur 0 812.5 0.1 27
2019-06-18 12:00:00 15.6 26 Sur 55 Sudoeste 0 812.5 0.2 27
2019-06-18 11:00:00 14.7 22 Sur 45 Sudoeste 0 812.4 0.3 26
2019-06-18 10:00:00 13.2 23 Sur 49 Sur 0 812.4 0.4 34
2019-06-18 09:00:00 12.7 25 Sur 45 Sudoeste 0 812.3 0.3 38
2019-06-18 08:00:00 11.2 21 Sudoeste 53 Sudoeste 0 812.1 0 39
2019-06-18 07:00:00 11.5 19 Sudoeste 50 Sudoeste 0 812 -0.4 35
2019-06-18 06:00:00 12.2 12 Sur 43 Sudeste 0 812 -0.8 34
2019-06-18 05:00:00 12.9 19 Sur 50 Sur 0 812.1 -1.6 31
2019-06-18 04:00:00 13.5 18 Sur 42 Sur 0 812.4 -1.9 34
2019-06-18 03:00:00 14.1 14 Sur 37 Sur 0 812.8 -1.7 32
2019-06-18 02:00:00 13.1 4 Oeste 9 Oeste 0 813.7 -0.7 37
2019-06-18 01:00:00 13.5 4 Norte 9 Oeste 0 814.3 0.2 37
2019-06-18 00:00:00 13.7 4 Norte 11 Norte 0 814.5 0.5 36
2019-06-17 23:00:00 14.3 5 Nordeste 18 Oeste 0 814.4 0.4 37
2019-06-17 22:00:00 15.5 14 Sudoeste 22 Sudoeste 0 814.1 0.2 31
2019-06-17 21:00:00 16.5 13 Sudoeste 35 Sudoeste 0 814 -0.2 29
2019-06-17 20:00:00 17.2 18 Sudoeste 42 Sur 0 814 -0.3 28
2019-06-17 19:00:00 17.6 22 Sudoeste 48 Sudoeste 0 813.9 -0.4 26
2019-06-17 18:00:00 19.5 25 Sudoeste 52 Sudoeste 0 814.2 -0.7 24
2019-06-17 17:00:00 18.8 20 Sudoeste 53 Sudoeste 0 814.3 -0.8 22
2019-06-17 16:00:00 19.6 26 Sudoeste 57 Sudoeste 0 814.3 -1.3 24
2019-06-17 15:00:00 19.4 24 Sur 62 Sudoeste 0 814.9 -0.9 25
2019-06-17 14:00:00 19.1 21 Sudoeste 44 Sudoeste 0 815.1 -0.5 27
2019-06-17 13:00:00 18.1 22 Sudoeste 42 Sudoeste 0 815.6 0.1 29
2019-06-17 12:00:00 17.4 17 Sur 37 Sur 0 815.8 0.5 30
2019-06-17 11:00:00 16.7 16 Sudoeste 30 Sudoeste 0 815.6 0.5 32
2019-06-17 10:00:00 15.6 11 Sudoeste 24 Sudoeste 0 815.5 0.6 33
2019-06-17 09:00:00 14.1 11 Sudoeste 24 Sur 0 815.3 0.3 35
2019-06-17 08:00:00 12.2 12 Oeste 22 Sudoeste 0 815.1 0 37
2019-06-17 07:00:00 11.1 13 Oeste 30 Oeste 0 814.9 -0.4 38
2019-06-17 06:00:00 11.3 13 Oeste 32 Oeste 0 815 -0.6 36
2019-06-17 05:00:00 11.7 15 Sudoeste 26 Sudoeste 0 815.1 -0.8 34
2019-06-17 04:00:00 11.6 10 Sudoeste 18 Sudoeste 0 815.3 -0.9 35
2019-06-17 03:00:00 12 3 Oeste 7 Norte 0 815.6 -0.9 38
2019-06-17 02:00:00 12 5 Nordeste 11 Nordeste 0 815.9 -0.4 39
2019-06-17 01:00:00 11.8 8 Nordeste 16 Noroeste 0 816.2 0.5 37
2019-06-17 00:00:00 12.6 5 Noroeste 20 Sudoeste 0 816.5 1 34
2019-06-16 23:00:00 12.7 13 Sudoeste 23 Sur 0 816.3 0.8 30
2019-06-16 22:00:00 12.9 16 Sur 30 Sudoeste 0 815.7 0.3 31
2019-06-16 21:00:00 15.9 17 Sudoeste 27 Sudoeste 0 815.5 0.1 26
2019-06-16 20:00:00 16.6 11 Sudoeste 27 Sur 0 815.5 -0.1 28
2019-06-16 19:00:00 17.4 11 Sudoeste 30 Sudoeste 0 815.4 -0.4 27
2019-06-16 18:00:00 18.2 15 Sudoeste 43 Sur 0 815.4 -0.6 25
2019-06-16 17:00:00 19.5 21 Sur 38 Sudoeste 0 815.6 -0.6 24
2019-06-16 16:00:00 18.9 15 Sur 33 Sudoeste 0 815.8 -0.4 26
2019-06-16 15:00:00 19.5 11 Sur 30 Sur 0 816 -0.1 29
2019-06-16 14:00:00 19.1 11 Sudeste 42 Sur 0 816.2 0.2 29
2019-06-16 13:00:00 17.5 14 Sur 38 Sudeste 0 816.2 0.3 30
2019-06-16 12:00:00 16.9 16 Sur 38 Sur 0 816.1 0.6 33
2019-06-16 11:00:00 15.4 18 Sur 37 Sur 0 816 1 33
2019-06-16 10:00:00 14.2 19 Sur 40 Sur 0 815.9 1.2 36
2019-06-16 09:00:00 12.4 19 Sudeste 38 Sudeste 0 815.5 0.9 37
2019-06-16 08:00:00 10.4 24 Sudeste 37 Sur 0 815 0.4 39
2019-06-16 07:00:00 9 19 Sur 37 Sudeste 0 814.7 -0.4 39
2019-06-16 06:00:00 8.7 18 Sudeste 39 Sur 0 814.6 -1 42
2019-06-16 05:00:00 9 22 Sur 39 Sur 0 814.6 -1.6 44
2019-06-16 04:00:00 9.2 14 Sudeste 28 Sur 0 815.1 -1.4 45
2019-06-16 03:00:00 9 5 Sur 17 Sur 0 815.6 -0.8 47
2019-06-16 02:00:00 9.2 5 Sur 9 Sur 0 816.2 -0.1 45
2019-06-16 01:00:00 9.3 2 Sur 7 Sudoeste 0 816.5 0.7 39
2019-06-16 00:00:00 9.4 4 Noroeste 9 Noroeste 0 816.4 0.7 39
2019-06-15 23:00:00 9.3 5 Noroeste 15 Norte 0 816.3 0.9 41
2019-06-15 22:00:00 9.8 10 Norte 16 Norte 0 815.8 0.6 41
2019-06-15 21:00:00 11.9 9 Noroeste 22 Noroeste 0 815.7 0.5 39
2019-06-15 20:00:00 13.3 10 Noroeste 25 Noroeste 0 815.4 0.2 38
2019-06-15 19:00:00 15.3 6 Noroeste 21 Noroeste 0 815.2 0.1 36
2019-06-15 18:00:00 15.8 9 Noroeste 24 Oeste 0 815.2 0.2 36
2019-06-15 17:00:00 16.2 9 Noroeste 23 Noroeste 0 815.2 0.2 40
2019-06-15 16:00:00 15.6 7 Noroeste 27 Noroeste 0 815.1 0.3 43
2019-06-15 15:00:00 13.3 7 Noroeste 21 Norte 0 815 0.4 51
2019-06-15 14:00:00 12.2 5 Noroeste 20 Noroeste 0 815 0.8 55
2019-06-15 13:00:00 10.6 4 Noroeste 14 Norte 0 814.8 0.9 58
2019-06-15 12:00:00 10.9 5 Noroeste 15 Norte 0 814.6 1.2 55
2019-06-15 11:00:00 10.1 5 Noroeste 12 Noroeste 0 814.2 1.2 57
2019-06-15 10:00:00 7 4 Norte 10 Norte 0 813.9 1.2 65
2019-06-15 09:00:00 6 4 Norte 13 Norte 0 813.4 0.9 69
2019-06-15 08:00:00 3.4 4 Nordeste 15 Norte 0 813 0.6 87
2019-06-15 07:00:00 1.8 8 Nordeste 19 Norte 0 812.7 0.1 94
2019-06-15 06:00:00 2.3 9 Norte 21 Norte 0 812.5 0 93
2019-06-15 05:00:00 2.6 11 Norte 20 Noroeste 0 812.4 -0.2 93
2019-06-15 04:00:00 2.7 8 Norte 15 Norte 0 812.6 -0.2 90
2019-06-15 03:00:00 2.7 7 Norte 20 Norte 0 812.5 0 85
2019-06-15 02:00:00 3.5 11 Norte 30 Norte 0 812.6 0.4 79
2019-06-15 01:00:00 4.2 11 Noroeste 28 Noroeste 0 812.8 1.3 73
2019-06-15 00:00:00 5.6 12 Noroeste 34 Noroeste 0 812.5 1.5 68
2019-06-14 23:00:00 6.4 10 Noroeste 34 Noroeste 0 812.2 1.8 64
2019-06-14 22:00:00 7.6 7 Noroeste 20 Sur 0 811.5 1.6 50
2019-06-14 21:00:00 8.9 15 Sur 31 Sudoeste 0 811 1.1 43
2019-06-14 20:00:00 11.1 19 Sudoeste 35 Sudoeste 0 810.4 0.5 38
2019-06-14 19:00:00 14.3 13 Sur 35 Sudoeste 0 809.9 0.1 31
2019-06-14 18:00:00 14.6 22 Sur 39 Sudoeste 0 809.9 0.3 31
2019-06-14 17:00:00 16.2 15 Sur 43 Sudoeste 0 809.9 0.3 30
2019-06-14 16:00:00 14.9 19 Sur 42 Sur 0 809.8 0.6 31
2019-06-14 15:00:00 14.3 18 Sudoeste 42 Sudoeste 0 809.6 0.8 31
2019-06-14 14:00:00 13.7 22 Sudoeste 49 Sur 0 809.6 0.8 31
2019-06-14 13:00:00 13.1 21 Sudoeste 48 Sudoeste 0 809.2 0.6 34
2019-06-14 12:00:00 12.3 23 Sudoeste 49 Sudoeste 0 808.8 0.4 37
2019-06-14 11:00:00 11.8 17 Sudoeste 39 Sudoeste 0 808.8 0.7 33
2019-06-14 10:00:00 9.9 18 Sur 39 Sudoeste 0 808.6 0.6 44
2019-06-14 09:00:00 9 22 Sudoeste 45 Sur 0 808.4 0.4 44
2019-06-14 08:00:00 8.5 26 Sudoeste 46 Sudoeste 0 808.1 0 43
2019-06-14 07:00:00 8.3 26 Sudoeste 37 Sudoeste 0 808 -0.2 38
2019-06-14 06:00:00 9 25 Sudoeste 39 Sudoeste 0 808 -0.6 39
2019-06-14 05:00:00 8.9 16 Sudoeste 32 Sudoeste 0 808.1 -0.6 41
2019-06-14 04:00:00 8.6 14 Sur 26 Sur 0 808.2 -1 43
2019-06-14 03:00:00 8.9 17 Sudoeste 39 Sudoeste 0 808.6 -1.1 37
2019-06-14 02:00:00 9.6 13 Sur 25 Sudoeste 0 808.7 -0.6 43
2019-06-14 01:00:00 9.2 5 Norte 17 Noroeste 0 809.2 0.5 30
2019-06-14 00:00:00 9.7 4 Norte 37 Oeste 0 809.7 1.3 25
2019-06-13 23:00:00 10.5 20 Oeste 40 Oeste 0 809.3 1.4 28
2019-06-13 22:00:00 10.7 14 Sudoeste 33 Sudoeste 0 808.7 0.9 32
2019-06-13 21:00:00 11.8 16 Sudoeste 42 Sudoeste 0 808.4 0.8 36
2019-06-13 20:00:00 13 24 Sudoeste 41 Sudoeste 0 807.9 0.2 33
2019-06-13 19:00:00 15.2 22 Sudoeste 53 Sudoeste 0 807.8 0.1 28
2019-06-13 18:00:00 15.5 28 Sudoeste 53 Sudoeste 0 807.6 0 25
2019-06-13 17:00:00 15.6 24 Sudoeste 62 Sur 0 807.7 0 26
2019-06-13 16:00:00 15.7 24 Sur 65 Sudoeste 0 807.7 -0.2 30
2019-06-13 15:00:00 14.8 36 Sur 63 Sudoeste 0 807.6 -0.5 39
2019-06-13 14:00:00 13.7 29 Sur 67 Sur 0 807.7 0 42
2019-06-13 13:00:00 13.5 24 Sur 49 Sur 0 807.9 0.4 47
2019-06-13 12:00:00 12.8 21 Sur 44 Sur 0 808.1 0.8 49
2019-06-13 11:00:00 11.4 15 Sur 49 Sur 0 807.7 0.8 46
2019-06-13 10:00:00 9.5 16 Sur 38 Sur 0 807.5 0.7 54
2019-06-13 09:00:00 8.2 5 Sur 28 Sur 0 807.3 0.8 74
2019-06-13 08:00:00 6.1 20 Sur 32 Sur 0 806.9 0.5 82
2019-06-13 07:00:00 4.8 15 Sur 35 Sur 0 806.8 0.2 92
2019-06-13 06:00:00 4.9 23 Sur 36 Sur 0 806.5 -0.4 89
2019-06-13 05:00:00 5.3 8 Sur 30 Sudeste 0 806.4 -1.1 86
2019-06-13 04:00:00 6.3 6 Sudoeste 39 Sudeste 0 806.6 -1.3 66
2019-06-13 03:00:00 8.5 19 Sur 37 Sudoeste 0 806.9 -1.3 31
2019-06-13 02:00:00 8.5 23 Sur 32 Sudoeste 0 807.5 -0.9 31
2019-06-13 01:00:00 8.1 15 Sudoeste 37 Sur 0 807.9 -0.4 31
2019-06-13 00:00:00 8.6 19 Sudoeste 34 Sudoeste 0 808.2 0 30
2019-06-12 23:00:00 8.7 17 Sudoeste 25 Sudoeste 0 808.4 0.3 35
2019-06-12 22:00:00 9 17 Sudoeste 26 Sudoeste 0 808.3 0.1 34
2019-06-12 21:00:00 10.6 17 Sudoeste 38 Sudoeste 0 808.2 -0.3 28
2019-06-12 20:00:00 12 17 Sudoeste 31 Sudoeste 0 808.1 -0.3 26
2019-06-12 19:00:00 11.4 15 Sudoeste 30 Sur 0 808.2 -0.5 31
2019-06-12 18:00:00 14.1 14 Sur 37 Sur 0 808.5 -0.7 30
2019-06-12 17:00:00 14 18 Sudoeste 41 Sudoeste 0 808.4 -1.1 31
2019-06-12 16:00:00 13.6 15 Sudoeste 40 Sur 0 808.7 -0.7 35
2019-06-12 15:00:00 11.8 13 Sudoeste 33 Sur 0 809.2 -0.3 44
2019-06-12 14:00:00 11.7 17 Sudoeste 32 Sur 0 809.5 0 44
2019-06-12 13:00:00 10.4 10 Sudoeste 28 Sur 0 809.4 0.3 47
2019-06-12 12:00:00 11.2 10 Sudeste 29 Sur 0 809.5 0.6 47
2019-06-12 11:00:00 8.5 14 Sur 33 Sur 0 809.5 0.9 58
2019-06-12 10:00:00 8.2 15 Sur 29 Sur 0 809.1 0.7 53
2019-06-12 09:00:00 5.7 10 Sur 22 Sudoeste 0 808.9 0.3 56
2019-06-12 08:00:00 4.2 11 Sur 21 Sur 0 808.6 -0.1 58
2019-06-12 07:00:00 1.9 11 Sudoeste 17 Sudoeste 0 808.4 -0.6 64
2019-06-12 06:00:00 1.7 2 Norte 10 Noroeste 0 808.6 -0.6 74
2019-06-12 05:00:00 1.6 5 Nordeste 14 Oeste 0 808.7 -0.9 71
2019-06-12 04:00:00 2.1 10 Oeste 18 Sudoeste 0 809 -1 65
2019-06-12 03:00:00 2.5 13 Sudoeste 19 Sudoeste 0 809.2 -0.9 66
2019-06-12 02:00:00 3.2 3 Oeste 10 Oeste 0 809.6 -0.6 64
2019-06-12 01:00:00 3 9 Oeste 14 Norte 0 810 0 65
2019-06-12 00:00:00 3.5 8 Nordeste 18 Norte 0 810.1 0.2 60
2019-06-11 23:00:00 3.7 14 Norte 25 Norte 0 810.2 0.5 60
2019-06-11 22:00:00 4.1 15 Norte 28 Norte 0 810 0.6 59
2019-06-11 21:00:00 5.5 16 Norte 32 Norte 0 809.9 0.5 53
2019-06-11 20:00:00 6.8 17 Norte 34 Norte 0 809.7 0.4 47
2019-06-11 19:00:00 8.3 10 Norte 39 Noroeste 0 809.4 0 46
2019-06-11 18:00:00 8.9 10 Norte 41 Noroeste 0 809.4 0.2 49
2019-06-11 17:00:00 8.8 12 Norte 35 Norte 0 809.3 -0.1 48
2019-06-11 16:00:00 8.1 14 Noroeste 35 Noroeste 0 809.4 0.5 52
2019-06-11 15:00:00 9.6 11 Norte 32 Norte 0 809.2 0.7 49
2019-06-11 14:00:00 6.5 10 Norte 32 Noroeste 0 809.4 1.1 67
2019-06-11 13:00:00 5.9 15 Noroeste 40 Noroeste 0 808.9 0.9 79
2019-06-11 12:00:00 3.4 17 Noroeste 37 Norte 0.2 808.5 0.6 94
2019-06-11 11:00:00 2.8 17 Noroeste 35 Noroeste 0 808.3 0.6 98
2019-06-11 10:00:00 2.8 17 Noroeste 34 Noroeste 0 808 0.3 100
2019-06-11 09:00:00 2.2 11 Norte 29 Noroeste 0 807.9 -0.1 99
2019-06-11 08:00:00 2.6 15 Noroeste 32 Noroeste 0 807.7 -0.8 98
2019-06-11 07:00:00 2.6 13 Noroeste 24 Noroeste 0 807.7 -1.3 96
2019-06-11 06:00:00 3.5 6 Norte 19 Noroeste 0 808 -1.5 88
2019-06-11 05:00:00 3.9 12 Noroeste 18 Noroeste 0 808.5 -1.5 82
2019-06-11 04:00:00 5.3 11 Norte 25 Noroeste 0 809 -1.4 72
2019-06-11 03:00:00 5.7 8 Nordeste 23 Norte 0 809.5 -1.4 62
2019-06-11 02:00:00 6.2 13 Norte 27 Noroeste 0 810 -0.9 55
2019-06-11 01:00:00 6.4 10 Noroeste 37 Noroeste 0 810.4 -0.4 49
2019-06-11 00:00:00 7.4 13 Noroeste 27 Noroeste 0 810.9 -0.1 48
2019-06-10 23:00:00 7.5 8 Noroeste 18 Norte 0 810.9 -0.2 46
2019-06-10 22:00:00 8.2 12 Norte 23 Noroeste 0 810.8 -0.5 42
2019-06-10 21:00:00 10.1 11 Noroeste 24 Noroeste 0 811 -0.7 36
2019-06-10 20:00:00 11.7 11 Noroeste 30 Noroeste 0 811.1 -1 33
2019-06-10 19:00:00 13.5 10 Noroeste 35 Noroeste 0 811.3 -0.9 34
2019-06-10 18:00:00 13.8 10 Noroeste 32 Norte 0 811.7 -0.7 37
2019-06-10 17:00:00 14 8 Norte 30 Noroeste 0 812.1 -0.6 36
2019-06-10 16:00:00 12.7 14 Norte 28 Norte 0 812.2 -0.9 36
2019-06-10 15:00:00 12.5 8 Noroeste 31 Noroeste 0 812.4 -0.7 46
2019-06-10 14:00:00 13 9 Norte 24 Noroeste 0 812.7 -0.1 49
2019-06-10 13:00:00 11 11 Noroeste 23 Noroeste 0 813.1 0.5 42
2019-06-10 12:00:00 9.9 11 Noroeste 22 Noroeste 0 813.1 0.6 60
2019-06-10 11:00:00 8.4 8 Noroeste 17 Noroeste 0 812.8 0.6 63
2019-06-10 10:00:00 7.7 9 Norte 20 Norte 0 812.6 0.4 75
2019-06-10 09:00:00 6.8 9 Norte 16 Norte 0 812.5 0.2 81
2019-06-10 08:00:00 5.8 9 Norte 17 Norte 0 812.2 -0.2 86
2019-06-10 07:00:00 4.3 8 Norte 13 Norte 0 812.2 -0.8 98
2019-06-10 06:00:00 4 9 Norte 13 Norte 0 812.3 -1.2 95
2019-06-10 05:00:00 4.3 9 Norte 13 Norte 0 812.4 -1.3 92
2019-06-10 04:00:00 4.5 10 Norte 17 Norte 0 813 -0.8 89
2019-06-10 03:00:00 4.4 12 Norte 23 Noroeste 0 813.5 -0.4 86
2019-06-10 02:00:00 4.9 13 Norte 24 Norte 0 813.7 -0.2 79
2019-06-10 01:00:00 5.7 13 Noroeste 30 Noroeste 0 813.8 0.5 70
2019-06-10 00:00:00 6.7 15 Norte 30 Noroeste 0 813.9 0.9 65
2019-06-09 23:00:00 7.9 17 Norte 35 Noroeste 0 813.9 1.1 58
2019-06-09 22:00:00 9.4 13 Noroeste 31 Noroeste 0 813.3 0.8 50
2019-06-09 21:00:00 11.8 11 Noroeste 29 Norte 0 813 0.4 42
2019-06-09 20:00:00 12.7 10 Noroeste 28 Oeste 0 812.8 0.2 42
2019-06-09 19:00:00 13.9 9 Norte 26 Noroeste 0 812.5 -0.4 39
2019-06-09 18:00:00 14.1 9 Noroeste 33 Noroeste 0 812.6 -0.5 39
2019-06-09 17:00:00 15.8 11 Noroeste 30 Norte 0 812.6 -0.7 33
2019-06-09 16:00:00 15.1 10 Noroeste 28 Noroeste 0 812.9 -0.6 37
2019-06-09 15:00:00 14.2 10 Noroeste 25 Norte 0 813.1 -0.2 43
2019-06-09 14:00:00 14.9 9 Oeste 22 Oeste 0 813.3 0 47
2019-06-09 13:00:00 14.7 9 Noroeste 28 Sur 0 813.5 0.3 47
2019-06-09 12:00:00 14.4 14 Sur 30 Sudoeste 0 813.3 0.2 39
2019-06-09 11:00:00 12.6 20 Sudoeste 39 Sur 0 813.3 0.4 38
2019-06-09 10:00:00 10.7 21 Sudoeste 40 Sudoeste 0 813.2 0.4 47
2019-06-09 09:00:00 9.4 20 Sudoeste 34 Sur 0 813.1 0.1 54
2019-06-09 08:00:00 8.6 18 Sudoeste 29 Sudoeste 0 812.9 -0.3 56
2019-06-09 07:00:00 8.3 21 Sudoeste 27 Sudoeste 0 812.8 -0.8 47
2019-06-09 06:00:00 8.1 20 Sur 27 Sur 0 813 -0.8 47
2019-06-09 05:00:00 8 15 Sur 25 Sudoeste 0 813.2 -1 58
2019-06-09 04:00:00 8.1 9 Sudoeste 23 Sur 0 813.6 -0.7 61
2019-06-09 03:00:00 8.5 18 Sudoeste 29 Sudoeste 0 813.8 -0.9 63
2019-06-09 02:00:00 10.3 19 Sudoeste 43 Sudoeste 0 814.2 -0.7 44
2019-06-09 01:00:00 12.8 31 Sudoeste 51 Sudoeste 0 814.3 -0.1 26
2019-06-09 00:00:00 12.5 21 Sudoeste 59 Sudoeste 0 814.7 0.5 26
2019-06-08 23:00:00 12.4 25 Sudoeste 50 Sudoeste 0 814.9 0.8 23
2019-06-08 22:00:00 12.2 25 Sudoeste 41 Sudoeste 0 814.4 0.4 29
2019-06-08 21:00:00 12.9 21 Sudoeste 43 Sudoeste 0 814.2 0 33
2019-06-08 20:00:00 14.1 25 Sudoeste 46 Sudoeste 0 814.1 -0.3 32
2019-06-08 19:00:00 14.4 26 Sudoeste 55 Sudoeste 0 814 -0.5 33
2019-06-08 18:00:00 15.2 23 Sudoeste 52 Sur 0 814.2 -0.7 40
2019-06-08 17:00:00 16.3 16 Sudoeste 69 Sur 0 814.4 -1 40
2019-06-08 16:00:00 15.9 24 Sur 66 Sur 0 814.5 -0.9 41
2019-06-08 15:00:00 17.1 12 Sur 53 Sur 0 814.9 -0.6 41
2019-06-08 14:00:00 15.2 20 Sudeste 47 Sudeste 0 815.4 0 46
2019-06-08 13:00:00 14.7 21 Sudeste 48 Sur 0 815.4 0 46
2019-06-08 12:00:00 12.9 25 Sudeste 48 Sur 0 815.5 0.3 43
2019-06-08 11:00:00 12.3 27 Sudeste 51 Sudeste 0 815.4 0.2 44
2019-06-08 10:00:00 10.4 30 Sudeste 52 Sudeste 0 815.4 0.5 45
2019-06-08 09:00:00 8.8 34 Sudeste 50 Sudeste 0 815.2 0.3 41
2019-06-08 08:00:00 7.4 22 Sudeste 40 Sudeste 0 815.2 0.2 51
2019-06-08 07:00:00 5.3 20 Sudeste 37 Sudeste 0 814.9 -0.1 54
2019-06-08 06:00:00 4.8 10 Sur 28 Sudeste 0 814.9 -0.5 55
2019-06-08 05:00:00 4.5 8 Sudeste 27 Sur 0 815 -0.4 59
2019-06-08 04:00:00 4.5 12 Sudeste 23 Sudeste 0 815 -0.6 60
2019-06-08 03:00:00 3.6 3 Noroeste 6 Oeste 0 815.4 -0.1 61
2019-06-08 02:00:00 4 3 Noroeste 5 Oeste 0 815.4 -0.1 58
2019-06-08 01:00:00 4.4 3 Oeste 10 Oeste 0 815.6 0.6 55
2019-06-08 00:00:00 4.5 4 Oeste 9 Noroeste 0 815.5 0.8 54
2019-06-07 23:00:00 4.6 6 Norte 14 Norte 0 815.5 1.2 54
2019-06-07 22:00:00 4.9 10 Norte 16 Norte 0 815 1.1 57
2019-06-07 21:00:00 6.7 6 Noroeste 23 Noroeste 0 814.7 1.2 54
2019-06-07 20:00:00 7.7 10 Noroeste 22 Noroeste 0 814.3 1 49
2019-06-07 19:00:00 9.2 10 Noroeste 27 Noroeste 0 813.9 1 48
2019-06-07 18:00:00 9.3 10 Noroeste 29 Norte 0 813.5 1.1 49
2019-06-07 17:00:00 8.3 12 Noroeste 35 Norte 0 813.3 1.4 55
2019-06-07 16:00:00 7.8 9 Noroeste 30 Noroeste 0 812.9 1.6 58
2019-06-07 15:00:00 7.4 14 Norte 31 Noroeste 0 812.4 1.8 61
2019-06-07 14:00:00 6.1 11 Noroeste 28 Noroeste 0 811.9 2.1 67
2019-06-07 13:00:00 5.3 14 Noroeste 32 Norte 0 811.3 2.3 65
2019-06-07 12:00:00 4.2 16 Noroeste 34 Norte 0 810.6 2.4 72
2019-06-07 11:00:00 1.2 14 Norte 37 Norte 0 809.8 2.1 94
2019-06-07 10:00:00 0.1 14 Noroeste 43 Noroeste 0 809 2.1 98
2019-06-07 09:00:00 -0.3 21 Norte 49 Norte 0 808.2 1.6 97
2019-06-07 08:00:00 -0.9 19 Norte 40 Norte 0 807.7 1.3 99
2019-06-07 07:00:00 -0.7 14 Noroeste 38 Noroeste 0 806.9 1.1 99
2019-06-07 06:00:00 -0.7 16 Norte 37 Norte 0 806.6 1.1 98
2019-06-07 05:00:00 0.4 5 Noroeste 34 Oeste 0.4 806.4 1 96
2019-06-07 04:00:00 1.6 8 Norte 19 Noroeste 0.6 805.8 0.6 98
2019-06-07 03:00:00 3 3 Nordeste 38 Sudoeste 0.4 805.5 -0.4 97
2019-06-07 02:00:00 5.3 18 Sudoeste 56 Sudoeste 0.2 805.4 -0.4 98
2019-06-07 01:00:00 5.8 32 Sudoeste 63 Sudoeste 0 805.2 0.1 89
2019-06-07 00:00:00 6.9 20 Sudoeste 55 Sudoeste 0 805.9 0.9 67
2019-06-06 23:00:00 7.2 30 Sudoeste 70 Sur 0 805.8 0.7 60
2019-06-06 22:00:00 7.5 41 Sudoeste 72 Sur 0 805.1 -0.2 57
2019-06-06 21:00:00 8.3 27 Sur 64 Sudoeste 0 805 -1 52
2019-06-06 20:00:00 9.4 44 Sudoeste 78 Sudoeste 0 805.1 -1.6 49
2019-06-06 19:00:00 10.4 27 Sudoeste 66 Sur 0 805.3 -1.2 46
2019-06-06 18:00:00 10.4 28 Sudoeste 64 Sudoeste 0 806 -1 44
2019-06-06 17:00:00 10.8 28 Sudoeste 71 Sudoeste 0 806.7 -0.6 41
2019-06-06 16:00:00 10.2 36 Sur 66 Sur 0 806.5 -0.9 40
2019-06-06 15:00:00 9.8 36 Sur 67 Sur 0 807 -0.4 37
2019-06-06 14:00:00 9.2 28 Sur 62 Sur 0 807.3 -0.1 39
2019-06-06 13:00:00 8.4 29 Sur 61 Sur 0 807.4 0 47
2019-06-06 12:00:00 7.2 31 Sur 63 Sur 0 807.4 -0.2 50
2019-06-06 11:00:00 6.6 24 Sur 53 Sur 0 807.4 -0.3 61
2019-06-06 10:00:00 5.1 28 Sur 49 Sur 0 807.4 -0.5 69
2019-06-06 09:00:00 3.7 29 Sur 48 Sur 0 807.6 -0.5 74
2019-06-06 08:00:00 3.3 27 Sur 43 Sur 0 807.7 -0.7 76
2019-06-06 07:00:00 2.1 21 Sur 37 Sur 0 807.9 -0.8 80
2019-06-06 06:00:00 2 18 Sudoeste 29 Sudoeste 0 808.1 -1.1 79
2019-06-06 05:00:00 0.9 6 Sudoeste 13 Sur 0 808.4 -0.9 84
2019-06-06 04:00:00 1 8 Oeste 15 Oeste 0 808.7 -1 85
2019-06-06 03:00:00 1.3 10 Noroeste 21 Oeste 0 809.2 -0.6 86
2019-06-06 02:00:00 1.9 8 Noroeste 17 Noroeste 0 809.3 -0.4 82
2019-06-06 01:00:00 2.8 9 Noroeste 20 Noroeste 0 809.7 0.4 77
2019-06-06 00:00:00 3.1 6 Norte 21 Noroeste 0 809.8 0.6 72
2019-06-05 23:00:00 3.9 8 Noroeste 26 Noroeste 0 809.7 0.7 71
2019-06-05 22:00:00 4.2 6 Noroeste 24 Oeste 0 809.3 0.5 62
2019-06-05 21:00:00 5.2 10 Oeste 25 Noroeste 0 809.2 0.5 62
2019-06-05 20:00:00 6.9 13 Noroeste 30 Oeste 0 809 0.1 52
2019-06-05 19:00:00 7.2 11 Noroeste 35 Oeste 0 808.8 0 53
2019-06-05 18:00:00 7.7 14 Oeste 35 Oeste 0 808.7 0 53
2019-06-05 17:00:00 6.9 10 Noroeste 36 Noroeste 0 808.9 0.4 58
2019-06-05 16:00:00 6.4 12 Noroeste 32 Noroeste 0 808.8 0.5 63
2019-06-05 15:00:00 5 15 Norte 43 Norte 0 808.7 1.4 77
2019-06-05 14:00:00 4.8 20 Norte 34 Norte 0 808.5 1.8 98
2019-06-05 13:00:00 2.7 10 Noroeste 41 Norte 0 808.3 2.1 100
2019-06-05 12:00:00 1.9 19 Norte 44 Noroeste 0 807.3 1.6 100
2019-06-05 11:00:00 0.8 15 Norte 44 Norte 0 806.7 1.7 100
2019-06-05 10:00:00 0.5 15 Noroeste 41 Noroeste 0 806.2 1.5 100
2019-06-05 09:00:00 0.1 14 Noroeste 38 Oeste 1.6 805.7 0.9 100
2019-06-05 08:00:00 0.4 14 Noroeste 44 Norte 1.8 805 -0.2 99
2019-06-05 07:00:00 1.3 17 Noroeste 33 Noroeste 0.8 804.7 -1 99
2019-06-05 06:00:00 2 16 Norte 32 Noroeste 0 804.8 -1.3 99
2019-06-05 05:00:00 2.7 8 Noroeste 27 Oeste 1.4 805.2 -1.2 98
2019-06-05 04:00:00 3.6 8 Noroeste 28 Noroeste 0 805.7 -1.1 91
2019-06-05 03:00:00 5.5 8 Norte 23 Noroeste 0 806.1 -1.2 88
2019-06-05 02:00:00 6.8 7 Noroeste 21 Noroeste 0 806.4 -1.3 89
2019-06-05 01:00:00 7.4 6 Norte 14 Norte 0 806.8 -1.2 91
2019-06-05 00:00:00 8.1 3 Nordeste 15 Este 0 807.3 -1.1 88
2019-06-04 23:00:00 8.5 5 Norte 12 Noroeste 0 807.7 -0.7 86
2019-06-04 22:00:00 9.5 8 Noroeste 19 Norte 0 808 -0.5 82
2019-06-04 21:00:00 10.9 7 Noroeste 22 Noroeste 0 808.4 -0.1 75
2019-06-04 20:00:00 13.3 10 Noroeste 29 Oeste 0 808.4 -0.3 58
2019-06-04 19:00:00 14.7 4 Norte 53 Sur 0 808.5 -0.6 51
2019-06-04 18:00:00 16.6 19 Sudoeste 39 Sudoeste 0 808.5 -0.9 32
2019-06-04 17:00:00 18.3 19 Sudoeste 44 Sudoeste 0 808.7 -0.8 35
2019-06-04 16:00:00 16.4 25 Sudoeste 47 Sudoeste 0 809.1 -0.9 41
2019-06-04 15:00:00 15.6 26 Sudoeste 47 Sur 0 809.4 -0.7 48
2019-06-04 14:00:00 17.1 19 Sur 48 Sudoeste 0 809.5 -0.5 41
2019-06-04 13:00:00 16.5 23 Sur 46 Sur 0 810 -0.3 39
2019-06-04 12:00:00 15.6 22 Sur 43 Sudoeste 0 810.1 -0.1 39
2019-06-04 11:00:00 14.7 24 Sur 42 Sur 0 810 -0.1 45
2019-06-04 10:00:00 13.5 22 Sur 50 Sur 0 810.3 0.1 49
2019-06-04 09:00:00 13.3 17 Sur 44 Sudoeste 0 810.2 -0.1 48
2019-06-04 08:00:00 12.9 21 Sudoeste 51 Sudoeste 0 810.1 -0.7 36
2019-06-04 07:00:00 12.7 29 Sudoeste 51 Sudoeste 0 810.2 -0.9 39
2019-06-04 06:00:00 13.7 26 Sudoeste 50 Sudoeste 0 810.3 -1.7 35
2019-06-04 05:00:00 13.7 30 Sudoeste 60 Sudoeste 0 810.8 -1.9 32
2019-06-04 04:00:00 14.2 34 Sudoeste 58 Sudoeste 0 811.1 -2.2 30
2019-06-04 03:00:00 14.5 28 Sudoeste 51 Sudoeste 0 812 -1.7 30
2019-06-04 02:00:00 15.2 26 Sudoeste 46 Sudoeste 0 812.7 -1.5 29
2019-06-04 01:00:00 15.2 21 Oeste 46 Sudoeste 0 813.3 -0.6 29
2019-06-04 00:00:00 15 18 Oeste 41 Oeste 0 813.7 -0.3 29
2019-06-03 23:00:00 15.6 17 Oeste 32 Oeste 0 814.2 0 28
2019-06-03 22:00:00 15.9 16 Sudoeste 39 Sudoeste 0 813.9 -0.5 28
2019-06-03 21:00:00 17.3 29 Sudoeste 48 Sudoeste 0 814 -0.5 25
2019-06-03 20:00:00 18.7 21 Sudoeste 50 Sur 0 814.2 -0.3 23
2019-06-03 19:00:00 20.7 27 Sudoeste 52 Sudoeste 0 814.4 -0.6 22
2019-06-03 18:00:00 21.8 25 Sudoeste 53 Sudoeste 0 814.5 -0.8 21
2019-06-03 17:00:00 21.9 24 Sudoeste 54 Sudoeste 0 814.5 -1.3 26
2019-06-03 16:00:00 21.8 25 Sudoeste 50 Sudoeste 0 815 -1 25
2019-06-03 15:00:00 22.1 28 Sudoeste 53 Sudoeste 0 815.3 -0.6 28
2019-06-03 14:00:00 21.3 10 Sudoeste 30 Sudoeste 0 815.8 0 34
2019-06-03 13:00:00 20.2 14 Sur 28 Sur 0 816 0.3 37
2019-06-03 12:00:00 20.1 11 Sudoeste 25 Sur 0 815.9 0.2 37
2019-06-03 11:00:00 19.1 11 Sudoeste 26 Sur 0 815.8 0.2 34
2019-06-03 10:00:00 17.1 13 Sur 24 Sudoeste 0 815.7 0 38
2019-06-03 09:00:00 15.7 16 Sudoeste 22 Sudoeste 0 815.7 0.2 41
2019-06-03 08:00:00 14.7 15 Sur 24 Sudoeste 0 815.6 0 41
2019-06-03 07:00:00 13.7 11 Sur 21 Sur 0 815.7 -0.1 42
2019-06-03 06:00:00 13.7 13 Sudeste 23 Sur 0 815.5 -0.8 42
2019-06-03 05:00:00 13.5 5 Sudoeste 17 Sur 0 815.6 -1.1 40
2019-06-03 04:00:00 13.5 5 Noroeste 9 Noroeste 0 815.8 -1.2 40
2019-06-03 03:00:00 13.7 7 Noroeste 13 Sudoeste 0 816.3 -0.9 40
2019-06-03 02:00:00 14.5 9 Noroeste 19 Noroeste 0 816.7 -0.5 37
2019-06-03 01:00:00 15.1 7 Noroeste 13 Noroeste 0 817 0.1 35
2019-06-03 00:00:00 15.6 9 Oeste 15 Noroeste 0 817.2 0.4 34
2019-06-02 23:00:00 15.9 7 Noroeste 20 Oeste 0 817.2 0.5 34
2019-06-02 22:00:00 16.4 7 Noroeste 18 Norte 0 816.9 0.3 36
2019-06-02 21:00:00 16.9 9 Norte 26 Oeste 0 816.8 0.1 35
2019-06-02 20:00:00 19.2 13 Sudoeste 25 Sudoeste 0 816.7 -0.1 31
2019-06-02 19:00:00 20.7 13 Sudoeste 27 Sudoeste 0 816.6 -0.6 30
2019-06-02 18:00:00 21.1 16 Sudoeste 30 Sur 0 816.7 -0.7 29
2019-06-02 17:00:00 23.7 16 Sudoeste 35 Sudoeste 0 816.8 -1.1 27
2019-06-02 16:00:00 23.5 9 Sudoeste 31 Sur 0 817.2 -1 26
2019-06-02 15:00:00 23.4 10 Sur 31 Sudoeste 0 817.4 -0.6 29
2019-06-02 14:00:00 24.5 13 Sur 30 Sudoeste 0 817.9 -0.1 31
2019-06-02 13:00:00 20.6 5 Sudoeste 22 Norte 0 818.2 0.4 34
2019-06-02 12:00:00 21.1 6 Norte 14 Norte 0 818 0.4 36
2019-06-02 11:00:00 20.6 4 Noroeste 14 Oeste 0 818 0.5 34
2019-06-02 10:00:00 19.3 4 Norte 12 Norte 0 817.8 0.5 33
2019-06-02 09:00:00 17.7 4 Norte 13 Norte 0 817.6 0.5 35
2019-06-02 08:00:00 15.8 7 Noroeste 13 Norte 0 817.5 0.4 44
2019-06-02 07:00:00 13.5 6 Noroeste 16 Noroeste 0 817.3 0 49
2019-06-02 06:00:00 14.3 10 Oeste 16 Noroeste 0 817.1 -0.6 40
2019-06-02 05:00:00 14.5 8 Sudoeste 12 Sur 0 817.1 -0.8 39
2019-06-02 04:00:00 14.8 9 Noroeste 13 Noroeste 0 817.3 -0.9 40
2019-06-02 03:00:00 15.2 5 Noroeste 21 Oeste 0 817.7 -0.7 37
2019-06-02 02:00:00 15.6 13 Sudoeste 25 Sudoeste 0 817.9 -0.5 36
2019-06-02 01:00:00 16 16 Sudoeste 24 Sudoeste 0 818.2 0.1 32
2019-06-02 00:00:00 16.6 16 Sudoeste 25 Sudoeste 0 818.4 0.4 33
2019-06-01 23:00:00 16.9 16 Sudoeste 27 Sudoeste 0 818.4 0.6 30
2019-06-01 22:00:00 17.4 17 Sudoeste 23 Sudoeste 0 818.1 0.2 29
2019-06-01 21:00:00 19.3 13 Sudoeste 21 Sudoeste 0 818 0 29
2019-06-01 20:00:00 21.4 7 Sudoeste 19 Sur 0 817.8 -0.5 29
2019-06-01 19:00:00 22.4 7 Oeste 18 Sudoeste 0 817.9 -0.8 24
2019-06-01 18:00:00 23.5 8 Noroeste 21 Este 0 818 -1 18
2019-06-01 17:00:00 23.5 5 Sur 25 Sur 0 818.3 -1 29
2019-06-01 16:00:00 24 6 Sudoeste 23 Sudoeste 0 818.7 -0.8 27
2019-06-01 15:00:00 23.7 7 Sudeste 31 Sur 0 819 -0.4 30
2019-06-01 14:00:00 23.7 10 Sudeste 26 Sudoeste 0 819.3 0 32
2019-06-01 13:00:00 22.6 12 Sudeste 24 Sur 0 819.5 0.3 33
2019-06-01 12:00:00 21 10 Sur 23 Noroeste 0 819.4 0.4 37
2019-06-01 11:00:00 21.7 9 Sudeste 18 Sudeste 0 819.3 0.4 31
2019-06-01 10:00:00 20.1 5 Nordeste 12 Sur 0 819.2 0.6 30
2019-06-01 09:00:00 17 7 Sur 21 Sur 0 819 0.5 32
2019-06-01 08:00:00 15 12 Sur 25 Sur 0 818.9 0.2 37
2019-06-01 07:00:00 12.4 14 Sur 28 Sur 0 818.6 -0.3 40
2019-06-01 06:00:00 11.5 17 Sur 27 Sur 0 818.5 -0.6 41
2019-06-01 05:00:00 11.7 17 Sur 35 Sudeste 0 818.7 -0.6 40
2019-06-01 04:00:00 11.8 22 Sudeste 33 Sudeste 0 818.9 -0.7 41
2019-06-01 03:00:00 12.3 18 Sur 25 Sur 0 819.1 -0.8 39
2019-06-01 02:00:00 13.4 16 Sur 23 Sur 0 819.3 -0.6 37
2019-06-01 01:00:00 14.1 14 Sur 23 Sur 0 819.6 -0.1 35
2019-06-01 00:00:00 14.2 14 Sur 20 Sur 0 819.9 0.4 35
2019-05-31 23:00:00 14.9 14 Sur 21 Sur 0 819.9 0.5 34
2019-05-31 22:00:00 15.5 15 Sur 20 Sur 0 819.7 0.2 36
2019-05-31 21:00:00 18.2 10 Sur 18 Sur 0 819.5 -0.1 33
2019-05-31 20:00:00 20.2 6 Noroeste 19 Noroeste 0 819.4 -0.3 22
2019-05-31 19:00:00 21.9 6 Noroeste 29 Oeste 0 819.5 -0.5 22
2019-05-31 18:00:00 22.4 7 Oeste 29 Noroeste 0 819.6 -0.6 23
2019-05-31 17:00:00 23.4 12 Oeste 24 Oeste 0 819.7 -0.8 23
2019-05-31 16:00:00 23 9 Oeste 25 Sudoeste 0 820 -0.7 28
2019-05-31 15:00:00 22.6 9 Oeste 26 Oeste 0 820.2 -0.3 28
2019-05-31 14:00:00 20.9 10 Noroeste 22 Noroeste 0 820.5 0 25
2019-05-31 13:00:00 20.2 5 Nordeste 20 Noroeste 0 820.7 0.3 29
2019-05-31 12:00:00 19.1 5 Norte 15 Norte 0 820.5 0.3 28
2019-05-31 11:00:00 17.7 4 Norte 13 Norte 0 820.5 0.4 33
2019-05-31 10:00:00 17.1 4 Norte 13 Sudeste 0 820.4 0.4 34
2019-05-31 09:00:00 15 9 Sur 21 Sur 0 820.2 0.2 36
2019-05-31 08:00:00 13.6 12 Sur 17 Sur 0 820.1 -0.2 35
2019-05-31 07:00:00 11.6 14 Sur 18 Sur 0 820 -0.4 37
2019-05-31 06:00:00 11.6 13 Sur 19 Sur 0 820 -0.9 37
2019-05-31 05:00:00 10.8 6 Este 17 Nordeste 0 820.3 -0.8 39
2019-05-31 04:00:00 11.5 8 Sur 22 Sur 0 820.4 -0.8 38
2019-05-31 03:00:00 12.3 6 Sur 25 Este 0 820.9 -0.4 35
2019-05-31 02:00:00 11.4 12 Este 25 Este 0 821.1 0 36
2019-05-31 01:00:00 11.7 14 Este 32 Este 0 821.2 0.4 34
2019-05-31 00:00:00 12.4 14 Este 32 Este 0 821.3 0.7 35
2019-05-30 23:00:00 13.1 13 Este 26 Este 0 821.1 0.7 36
2019-05-30 22:00:00 14.7 5 Sudeste 11 Este 0 820.8 0.3 30
2019-05-30 21:00:00 16.6 8 Norte 28 Noroeste 0 820.6 0 26
2019-05-30 20:00:00 18.3 6 Noroeste 24 Noroeste 0 820.4 -0.5 25
2019-05-30 19:00:00 19.6 10 Noroeste 28 Noroeste 0 820.5 -0.5 22
2019-05-30 18:00:00 20.1 10 Noroeste 28 Noroeste 0 820.6 -0.5 23
2019-05-30 17:00:00 20.5 9 Noroeste 26 Norte 0 820.9 -0.2 25
2019-05-30 16:00:00 21.4 5 Nordeste 21 Noroeste 0 821 0 26
2019-05-30 15:00:00 19.7 6 Noroeste 20 Noroeste 0 821.1 0.2 31
2019-05-30 14:00:00 18.4 8 Noroeste 21 Oeste 0 821.1 0.4 35
2019-05-30 13:00:00 17.9 8 Norte 26 Noroeste 0 821 0.5 38
2019-05-30 12:00:00 18 4 Oeste 11 Sudoeste 0 820.9 0.6 34
2019-05-30 11:00:00 17.3 2 Este 13 Nordeste 0 820.7 0.8 32
2019-05-30 10:00:00 15.1 2 Este 8 Noroeste 0 820.5 0.9 42
2019-05-30 09:00:00 13.9 3 Nordeste 15 Nordeste 0 820.3 0.9 40
2019-05-30 08:00:00 11.2 6 Este 20 Este 0 819.9 0.5 39
2019-05-30 07:00:00 9 12 Este 23 Nordeste 0 819.6 -0.1 36
2019-05-30 06:00:00 8.4 14 Nordeste 23 Nordeste 0 819.4 -0.5 45
2019-05-30 05:00:00 8.9 16 Este 24 Nordeste 0 819.4 -0.7 45
2019-05-30 04:00:00 8.4 6 Norte 18 Norte 0 819.7 -0.4 48
2019-05-30 03:00:00 8.8 12 Norte 17 Norte 0 819.9 -0.3 47
2019-05-30 02:00:00 9.8 14 Norte 29 Nordeste 0 820.1 0.2 44
2019-05-30 01:00:00 9.8 18 Nordeste 27 Norte 0 820.1 0.6 47
2019-05-30 00:00:00 8.8 15 Norte 21 Norte 0 820.2 0.7 56
2019-05-29 23:00:00 8.9 15 Norte 22 Norte 0 819.9 0.9 53
2019-05-29 22:00:00 8.6 18 Norte 26 Norte 0 819.5 0.8 64
2019-05-29 21:00:00 10.5 6 Norte 31 Noroeste 0 819.5 0.7 61
2019-05-29 20:00:00 12.1 8 Norte 32 Noroeste 0 819 0.3 53
2019-05-29 19:00:00 13.5 13 Noroeste 33 Noroeste 0 818.7 0.1 46
2019-05-29 18:00:00 14.5 10 Norte 35 Noroeste 0 818.8 0.3 47
2019-05-29 17:00:00 15.3 9 Norte 30 Noroeste 0 818.7 0.4 47
2019-05-29 16:00:00 14.5 9 Noroeste 29 Noroeste 0 818.6 0.5 51
2019-05-29 15:00:00 13.7 10 Noroeste 30 Noroeste 0 818.5 0.7 54
2019-05-29 14:00:00 11.9 15 Noroeste 35 Noroeste 0 818.3 0.8 56
2019-05-29 13:00:00 11 15 Noroeste 29 Noroeste 0 818.1 0.9 58
2019-05-29 12:00:00 9.4 20 Noroeste 31 Norte 0 817.8 1.1 61
2019-05-29 11:00:00 7.9 14 Noroeste 27 Noroeste 0 817.5 1.1 64
2019-05-29 10:00:00 7.8 6 Norte 21 Nordeste 0 817.2 1.3 61
2019-05-29 09:00:00 6.4 7 Nordeste 19 Norte 0 816.7 1.1 66
2019-05-29 08:00:00 5.1 6 Norte 28 Norte 0 816.4 0.9 65
2019-05-29 07:00:00 3.9 19 Norte 36 Norte 0 815.9 0.3 70
2019-05-29 06:00:00 3.7 19 Norte 41 Norte 0 815.6 0.1 71
2019-05-29 05:00:00 4.2 20 Norte 36 Norte 0 815.5 -0.2 69
2019-05-29 04:00:00 3.7 21 Norte 32 Norte 0 815.6 -0.1 69
2019-05-29 03:00:00 4.5 22 Norte 33 Norte 0 815.5 0.1 65
2019-05-29 02:00:00 4.7 19 Norte 31 Norte 0 815.7 0.7 67
2019-05-29 01:00:00 4.9 18 Norte 33 Norte 0 815.7 0.9 67
2019-05-29 00:00:00 5.4 17 Norte 37 Norte 0 815.4 0.9 72
2019-05-28 23:00:00 6.5 23 Norte 40 Norte 0 815 0.8 65
2019-05-28 22:00:00 6.4 24 Norte 38 Norte 0 814.8 0.8 66
2019-05-28 21:00:00 7.9 22 Norte 37 Norte 0 814.5 0.4 60
2019-05-28 20:00:00 9.3 18 Norte 40 Norte 0 814.2 0.3 51
2019-05-28 19:00:00 10.7 15 Norte 46 Norte 0 814 0.1 49
2019-05-28 18:00:00 12.8 16 Norte 44 Noroeste 0 814.1 0.2 47
2019-05-28 17:00:00 14.1 15 Norte 35 Noroeste 0 813.9 0.1 37
2019-05-28 16:00:00 14.4 12 Norte 29 Norte 0 813.9 0.4 38
2019-05-28 15:00:00 14 12 Norte 31 Norte 0 813.9 0.8 38
2019-05-28 14:00:00 12.4 12 Norte 30 Norte 0 813.8 1 39
2019-05-28 13:00:00 12.6 12 Norte 27 Norte 0 813.5 1 34
2019-05-28 12:00:00 11 13 Norte 35 Norte 0 813.1 1 44
2019-05-28 11:00:00 9.8 15 Norte 30 Norte 0 812.8 1.1 46
2019-05-28 10:00:00 8.5 15 Norte 28 Norte 0 812.5 1.2 63
2019-05-28 09:00:00 7.7 16 Norte 30 Norte 0 812.1 1.1 74
2019-05-28 08:00:00 5.7 21 Norte 32 Norte 0 811.7 0.6 89
2019-05-28 07:00:00 5.6 20 Norte 34 Norte 0 811.3 -0.1 90
2019-05-28 06:00:00 6.8 22 Norte 31 Norte 0 811 -0.6 84
2019-05-28 05:00:00 6.8 18 Norte 24 Norte 0 811.1 -0.8 85
2019-05-28 04:00:00 7.7 17 Norte 24 Norte 0 811.4 -0.6 80
2019-05-28 03:00:00 8.5 15 Norte 21 Norte 0 811.6 -0.4 74
2019-05-28 02:00:00 9.3 7 Noroeste 21 Norte 0 811.9 -0.1 69
2019-05-28 01:00:00 9.8 16 Norte 22 Norte 0 812 0.4 67
2019-05-28 00:00:00 10.3 15 Nordeste 24 Norte 0 812 0.1 62
2019-05-27 23:00:00 10.2 17 Nordeste 27 Norte 0 812 0.6 64
2019-05-27 22:00:00 10.3 18 Norte 31 Norte 0 811.6 0.2 66
2019-05-27 21:00:00 11.5 16 Norte 35 Norte 0 811.9 0.3 62
2019-05-27 20:00:00 13.2 14 Norte 31 Norte 0 811.4 -0.4 55
2019-05-27 19:00:00 14.8 15 Noroeste 39 Noroeste 0 811.4 -0.7 48
2019-05-27 18:00:00 16.1 9 Norte 36 Noroeste 0 811.6 -0.7 48
2019-05-27 17:00:00 16.3 11 Norte 33 Noroeste 0 811.8 -0.8 47
2019-05-27 16:00:00 16.5 10 Norte 34 Noroeste 0 812.1 -0.8 49
2019-05-27 15:00:00 17 9 Norte 30 Noroeste 0 812.3 -0.5 47
2019-05-27 14:00:00 15.6 7 Norte 25 Norte 0 812.6 -0.1 52
2019-05-27 13:00:00 15.4 9 Norte 23 Nordeste 0 812.9 0.2 50
2019-05-27 12:00:00 14.2 13 Norte 34 Nordeste 0 812.8 0.2 51
2019-05-27 11:00:00 13.5 13 Norte 24 Nordeste 0 812.7 0.2 55
2019-05-27 10:00:00 12.5 13 Norte 24 Norte 0 812.7 0 49
2019-05-27 09:00:00 11.3 10 Nordeste 23 Norte 0 812.6 0 62
2019-05-27 08:00:00 10 16 Norte 23 Norte 0 812.5 -0.4 57
2019-05-27 07:00:00 8.6 17 Norte 25 Norte 0 812.7 -0.4 65
2019-05-27 06:00:00 8.9 15 Norte 26 Norte 0 812.6 -0.9 73
2019-05-27 05:00:00 9.3 17 Norte 27 Nordeste 0 812.9 -1.2 66
2019-05-27 04:00:00 9.6 14 Norte 32 Norte 0 813.1 -1.2 61
2019-05-27 03:00:00 9.9 18 Norte 34 Norte 0 813.5 -1.2 54
2019-05-27 02:00:00 10 16 Norte 33 Norte 0 814.1 -0.7 56
2019-05-27 01:00:00 10.2 17 Norte 37 Norte 0 814.3 -0.3 50
2019-05-27 00:00:00 10.5 16 Norte 34 Norte 0 814.7 -0.1 48
2019-05-26 23:00:00 10 19 Nordeste 34 Nordeste 0 814.8 0 50
2019-05-26 22:00:00 9.2 19 Norte 30 Norte 0 814.6 -0.3 68
2019-05-26 21:00:00 10.7 15 Norte 31 Norte 0 814.8 -0.1 62
2019-05-26 20:00:00 12.1 13 Norte 35 Norte 0 814.8 -0.1 55
2019-05-26 19:00:00 13.6 16 Norte 40 Noroeste 0 814.9 -0.4 51
2019-05-26 18:00:00 14.5 15 Noroeste 45 Noroeste 0 814.9 -0.1 52
2019-05-26 17:00:00 14.9 13 Norte 42 Noroeste 0 814.9 0 54
2019-05-26 16:00:00 14.2 12 Noroeste 41 Noroeste 0 815.3 0.4 56
2019-05-26 15:00:00 13.9 5 Nordeste 41 Noroeste 0 815 0.1 56
2019-05-26 14:00:00 12.1 14 Noroeste 48 Noroeste 0 814.9 0.2 55
2019-05-26 13:00:00 10.4 17 Noroeste 35 Noroeste 0 814.9 0 63
2019-05-26 12:00:00 8.9 15 Noroeste 34 Noroeste 0 814.9 0.5 69
2019-05-26 11:00:00 7.9 13 Noroeste 27 Noroeste 0 814.7 0.2 65
2019-05-26 10:00:00 6.6 12 Noroeste 23 Norte 0 814.9 0.6 67
2019-05-26 09:00:00 8 8 Nordeste 23 Nordeste 0 814.4 0.2 55
2019-05-26 08:00:00 5.6 13 Norte 28 Nordeste 0 814.5 0.1 62
2019-05-26 07:00:00 4 14 Norte 27 Nordeste 0 814.3 -0.5 61
2019-05-26 06:00:00 4.5 17 Nordeste 26 Nordeste 0 814.2 -0.8 64
2019-05-26 05:00:00 4.3 14 Nordeste 27 Nordeste 0 814.4 -0.8 60
2019-05-26 04:00:00 4.6 15 Norte 32 Nordeste 0 814.8 -0.6 53
2019-05-26 03:00:00 4.9 17 Norte 40 Norte 0 815 -0.5 60
2019-05-26 02:00:00 5.2 18 Norte 47 Norte 0 815.2 -0.3 45
2019-05-26 01:00:00 5.8 21 Norte 46 Norte 0 815.4 0 49
2019-05-26 00:00:00 4.6 20 Norte 28 Norte 0 815.5 0.1 81
2019-05-25 23:00:00 5.1 14 Norte 34 Norte 0 815.5 0.2 85
2019-05-25 22:00:00 6 13 Norte 25 Norte 0 815.4 0.1 75
2019-05-25 21:00:00 7.5 9 Norte 31 Noroeste 0 815.4 0.2 72
2019-05-25 20:00:00 9.4 13 Norte 33 Noroeste 0 815.3 0.3 62
2019-05-25 19:00:00 11.5 14 Norte 34 Noroeste 0 815.3 0.4 55
2019-05-25 18:00:00 11.8 15 Noroeste 32 Norte 0 815.2 0.2 55
2019-05-25 17:00:00 12.6 14 Noroeste 32 Noroeste 0 815 -0.2 54
2019-05-25 16:00:00 13.4 13 Norte 29 Noroeste 0 814.9 0.1 53
2019-05-25 15:00:00 11.6 7 Noroeste 31 Noroeste 0 815 0.1 60
2019-05-25 14:00:00 11.2 10 Norte 28 Oeste 0 815.2 0.7 65
2019-05-25 13:00:00 8.2 9 Norte 23 Norte 0 814.8 0.7 75
2019-05-25 12:00:00 5.5 8 Norte 21 Noroeste 0 814.9 1.4 90
2019-05-25 11:00:00 3.2 10 Norte 22 Norte 0 814.5 1.4 100
2019-05-25 10:00:00 3 9 Norte 23 Norte 0 814.1 1.2 100
2019-05-25 09:00:00 2.8 10 Norte 23 Norte 0 813.5 0.8 100
2019-05-25 08:00:00 2.2 12 Norte 24 Noroeste 0 813.1 0.4 100
2019-05-25 07:00:00 1.9 7 Norte 22 Norte 0 812.9 0 100
2019-05-25 06:00:00 1.9 8 Norte 22 Norte 0 812.7 -0.3 100
2019-05-25 05:00:00 2 10 Norte 22 Norte 0 812.7 -0.5 100
2019-05-25 04:00:00 2.1 10 Noroeste 19 Norte 0 812.9 -0.3 99
2019-05-25 03:00:00 2 7 Norte 14 Oeste 0 813 -0.1 99
2019-05-25 02:00:00 2.3 5 Noroeste 14 Noroeste 0 813.2 0.3 99
2019-05-25 01:00:00 2.1 10 Nordeste 19 Nordeste 0 813.2 0.7 94
2019-05-25 00:00:00 2.5 15 Norte 28 Noroeste 0 813.1 0.8 97
2019-05-24 23:00:00 3.1 18 Norte 32 Norte 0 812.9 0.9 87
2019-05-24 22:00:00 3.9 18 Norte 37 Noroeste 0 812.5 0.6 83
2019-05-24 21:00:00 6.1 15 Norte 40 Noroeste 0 812.3 0.3 71
2019-05-24 20:00:00 7.7 10 Norte 38 Noroeste 0 812 0.2 68
2019-05-24 19:00:00 9.4 14 Norte 42 Norte 0 811.9 -0.4 62
2019-05-24 18:00:00 10.6 15 Norte 41 Noroeste 0 812 -0.4 55
2019-05-24 17:00:00 11.2 16 Noroeste 41 Noroeste 0 811.8 -0.5 51
2019-05-24 16:00:00 12.3 8 Norte 28 Norte 0 812.3 0.1 56
2019-05-24 15:00:00 10.5 12 Norte 27 Nordeste 0 812.4 0.4 70
2019-05-24 14:00:00 7.9 13 Norte 26 Norte 0 812.3 0.4 89
2019-05-24 13:00:00 7.8 10 Noroeste 24 Norte 0 812.2 0.5 90
2019-05-24 12:00:00 8.2 8 Nordeste 22 Norte 0 812 0.8 100
2019-05-24 11:00:00 6 8 Norte 22 Nordeste 0 811.9 0.9 100
2019-05-24 10:00:00 5.5 10 Norte 24 Noroeste 0 811.7 0.8 99
2019-05-24 09:00:00 6 15 Norte 28 Norte 0 811.2 0 99
2019-05-24 08:00:00 5.9 14 Norte 28 Norte 0 811 -0.4 99
2019-05-24 07:00:00 6 13 Norte 22 Norte 0 810.9 -0.7 98
2019-05-24 06:00:00 6.1 12 Norte 22 Norte 0 811.2 -1 96
2019-05-24 05:00:00 7.1 10 Nordeste 21 Noroeste 0 811.4 -1.3 87
2019-05-24 04:00:00 6.4 8 Norte 15 Norte 0 811.6 -1.6 89
2019-05-24 03:00:00 7 8 Noroeste 18 Noroeste 0 812.2 -1.4 83
2019-05-24 02:00:00 7.2 9 Norte 22 Norte 0 812.7 -1.3 80
2019-05-24 01:00:00 8.1 13 Norte 32 Noroeste 0 813.2 -0.4 71
2019-05-24 00:00:00 9.1 14 Norte 37 Noroeste 0 813.6 0.3 59
2019-05-23 23:00:00 10.6 13 Norte 36 Noroeste 0 814 0.7 52
2019-05-23 22:00:00 11.5 10 Noroeste 33 Noroeste 0 813.6 0.2 49
2019-05-23 21:00:00 13.1 10 Noroeste 30 Noroeste 0 813.3 -0.3 52
2019-05-23 20:00:00 15.1 10 Noroeste 31 Noroeste 0 813.3 -0.5 42
2019-05-23 19:00:00 15.9 8 Oeste 24 Sudoeste 0 813.4 -0.6 43
2019-05-23 18:00:00 16.4 8 Oeste 28 Sudoeste 0 813.6 -0.7 41
2019-05-23 17:00:00 17.1 12 Sudoeste 34 Sudoeste 0 813.8 -0.9 44
2019-05-23 16:00:00 15.8 12 Sudoeste 31 Sudoeste 0 814 -1.2 46
2019-05-23 15:00:00 14.8 17 Sur 33 Sudoeste 0 814.3 -0.9 49
2019-05-23 14:00:00 15.8 12 Sur 32 Sudoeste 0 814.7 -0.4 51
2019-05-23 13:00:00 14.6 16 Sudoeste 33 Sudoeste 0 815.2 0.2 51
2019-05-23 12:00:00 14.6 9 Sudoeste 21 Sudoeste 0 815.2 0.5 48
2019-05-23 11:00:00 14.4 13 Sudoeste 28 Sudoeste 0 815.1 0.7 48
2019-05-23 10:00:00 14.4 8 Sur 16 Sur 0 815 0.7 44
2019-05-23 09:00:00 12.2 11 Sur 18 Sur 0 814.7 0.4 53
2019-05-23 08:00:00 10.2 4 Sudoeste 9 Sudoeste 0 814.4 0 49
2019-05-23 07:00:00 9.2 2 Nordeste 6 Nordeste 0 814.3 -0.2 53
2019-05-23 06:00:00 8.5 5 Nordeste 14 Norte 0 814.3 -0.5 59
2019-05-23 05:00:00 9 8 Nordeste 14 Nordeste 0 814.4 -0.5 55
2019-05-23 04:00:00 9.6 6 Norte 10 Norte 0 814.5 -0.6 50
2019-05-23 03:00:00 9.7 8 Nordeste 12 Noroeste 0 814.8 -0.5 48
2019-05-23 02:00:00 11.3 3 Noroeste 12 Oeste 0 814.9 -0.3 43
2019-05-23 01:00:00 11.6 3 Noroeste 12 Oeste 0 815.1 0.2 41
2019-05-23 00:00:00 12 7 Oeste 11 Oeste 0 815.3 0.5 39
2019-05-22 23:00:00 12.2 2 Sur 9 Sur 0 815.2 0.7 44
2019-05-22 22:00:00 12.4 8 Sur 10 Sur 0 814.9 0.4 46
2019-05-22 21:00:00 14 5 Oeste 17 Norte 0 814.8 0.2 37
2019-05-22 20:00:00 15 5 Norte 16 Noroeste 0 814.5 0 37
2019-05-22 19:00:00 15.7 2 Sudeste 18 Norte 0 814.5 -0.2 39
2019-05-22 18:00:00 15.2 4 Noroeste 18 Oeste 0 814.6 -0.2 35
2019-05-22 17:00:00 15.9 9 Oeste 20 Oeste 0 814.5 -0.4 34
2019-05-22 16:00:00 15.5 5 Noroeste 29 Noroeste 0 814.7 -0.3 38
2019-05-22 15:00:00 14.9 6 Noroeste 22 Oeste 0 814.8 0 38
2019-05-22 14:00:00 15.8 9 Oeste 18 Sudoeste 0 814.9 0.5 39
2019-05-22 13:00:00 14.4 7 Sudoeste 19 Sudoeste 0 815 0.8 45
2019-05-22 12:00:00 14.5 6 Sudoeste 18 Oeste 0 814.8 1 37
2019-05-22 11:00:00 13.5 6 Noroeste 17 Norte 0 814.4 0.8 35
2019-05-22 10:00:00 12.3 6 Norte 16 Norte 0 814.2 1 43
2019-05-22 09:00:00 11 3 Norte 10 Noroeste 0 813.8 0.6 50
2019-05-22 08:00:00 9.2 6 Norte 12 Norte 0 813.6 0.3 55
2019-05-22 07:00:00 7.4 9 Norte 13 Norte 0 813.2 0 58
2019-05-22 06:00:00 7.6 9 Oeste 14 Oeste 0 813.2 0 57
2019-05-22 05:00:00 8.1 7 Oeste 12 Oeste 0 813.3 0 54
2019-05-22 04:00:00 7.7 6 Sur 11 Sur 0 813.2 -0.3 57
2019-05-22 03:00:00 7.8 6 Nordeste 12 Nordeste 0 813.2 -0.2 57
2019-05-22 02:00:00 8.1 4 Sudoeste 15 Este 0 813.3 0 52
2019-05-22 01:00:00 7.5 8 Este 22 Este 0 813.5 0.7 59
2019-05-22 00:00:00 7.3 9 Este 12 Nordeste 0 813.4 1 59
2019-05-21 23:00:00 8.1 6 Nordeste 9 Nordeste 0 813.3 1.4 58
2019-05-21 22:00:00 8.6 8 Nordeste 13 Norte 0 812.8 1 59
2019-05-21 21:00:00 10 5 Noroeste 12 Noroeste 0 812.4 0.5 56
2019-05-21 20:00:00 10.2 4 Norte 8 Norte 0 811.9 0 55
2019-05-21 19:00:00 11.5 3 Este 7 Este 0 811.8 0.1 57
2019-05-21 18:00:00 11.1 4 Este 8 Este 0 811.9 0.3 55
2019-05-21 17:00:00 10.5 6 Nordeste 15 Oeste 0 811.9 0.3 56
2019-05-21 16:00:00 10.9 10 Sudeste 24 Sudeste 0 811.7 0.2 57
2019-05-21 15:00:00 11.1 7 Sudeste 14 Sudeste 0 811.6 0.4 53
2019-05-21 14:00:00 10.5 6 Noroeste 20 Sur 0 811.6 0.6 57
2019-05-21 13:00:00 10.3 4 Sur 12 Noroeste 0 811.5 0.9 53
2019-05-21 12:00:00 10.1 4 Este 14 Sudoeste 0 811.2 0.8 58
2019-05-21 11:00:00 10.5 4 Sur 14 Sur 0 811 1 53
2019-05-21 10:00:00 9.6 5 Sur 12 Sur 0 810.6 0.9 57
2019-05-21 09:00:00 6.8 0 Calma 6 Noroeste 0 810.4 0.8 64
2019-05-21 08:00:00 5.7 2 Oeste 5 Sudoeste 0 810 0.5 54
2019-05-21 07:00:00 5.2 3 Noroeste 7 Noroeste 0 809.7 0.2 55
2019-05-21 06:00:00 4.9 2 Nordeste 8 Noroeste 0 809.6 -0.1 56
2019-05-21 05:00:00 4.8 3 Norte 7 Norte 0 809.5 -0.6 56
2019-05-21 04:00:00 4.2 4 Noroeste 7 Noroeste 0 809.5 -0.8 63
2019-05-21 03:00:00 4.6 5 Norte 12 Norte 0 809.7 -0.6 56
2019-05-21 02:00:00 4.7 8 Norte 14 Norte 0 810.1 0 57
2019-05-21 01:00:00 4.9 9 Norte 17 Norte 0 810.3 0.8 56
2019-05-21 00:00:00 4.9 10 Norte 14 Norte 0 810.3 1.2 61